Nagano, Japan
Current Conditions -  °F | °C
As of 12:00 PM on Friday 28 Nov 2014 (Local Time) from RJNT Reporting Station
Scattered Clouds Scattered Clouds  
Wind Chill: 63°   Ceiling: Unl
Heat Index: 63°   Visibility: 6mi
Dew Point: 48°   Wind: 2mph
Humidity: 59%   Direction: NA
Pressure: 30.12"   Gusts: NA
Location:  36.65°N, 138.18°E
Report Text: RJNT 280300Z VRB02KT 9999 FEW040 SCT/// 17/09 Q1020
Loading
Personal Weather Stations






























Interactive Weather Map New forecast layout! Learn more

10-Day Weather Forecast

Advertisements
Track Severe Weather on mobile